sensor_id;sensor_type;location;lat;lon;timestamp;pressure;altitude;pressure_sealevel;temperature;humidity
77205;BME280;66188;46.626;18.866;2023-02-03T00:01:05;100967.81;;;13.14;37.84
77205;BME280;66188;46.626;18.866;2023-02-03T00:03:31;100957.69;;;13.08;37.75
77205;BME280;66188;46.626;18.866;2023-02-03T00:05:56;100968.81;;;13.13;37.46
77205;BME280;66188;46.626;18.866;2023-02-03T00:08:22;100962.03;;;13.09;37.47
77205;BME280;66188;46.626;18.866;2023-02-03T00:10:48;100972.88;;;13.08;37.20
77205;BME280;66188;46.626;18.866;2023-02-03T00:13:17;100975.28;;;13.11;37.69
77205;BME280;66188;46.626;18.866;2023-02-03T00:15:42;100971.59;;;13.12;37.45
77205;BME280;66188;46.626;18.866;2023-02-03T00:18:08;100978.66;;;13.13;37.64
77205;BME280;66188;46.626;18.866;2023-02-03T00:20:34;100976.13;;;13.11;36.64
77205;BME280;66188;46.626;18.866;2023-02-03T00:23:07;100973.47;;;13.11;37.21
77205;BME280;66188;46.626;18.866;2023-02-03T00:25:34;100970.78;;;13.11;36.89
77205;BME280;66188;46.626;18.866;2023-02-03T00:28:00;100975.41;;;13.09;37.85
77205;BME280;66188;46.626;18.866;2023-02-03T00:30:26;100975.41;;;13.09;37.83
77205;BME280;66188;46.626;18.866;2023-02-03T00:32:51;100973.03;;;13.06;38.04
77205;BME280;66188;46.626;18.866;2023-02-03T00:35:17;100973.84;;;13.07;37.45
77205;BME280;66188;46.626;18.866;2023-02-03T00:37:42;100980.28;;;13.04;37.75
77205;BME280;66188;46.626;18.866;2023-02-03T00:40:08;100982.25;;;13.02;37.28
77205;BME280;66188;46.626;18.866;2023-02-03T00:42:34;100982.25;;;13.02;37.31
77205;BME280;66188;46.626;18.866;2023-02-03T00:45:01;100963.56;;;12.93;37.62
77205;BME280;66188;46.626;18.866;2023-02-03T00:47:26;100975.94;;;13.03;37.95
77205;BME280;66188;46.626;18.866;2023-02-03T00:49:52;100977.50;;;13.06;37.35
77205;BME280;66188;46.626;18.866;2023-02-03T00:52:20;100984.81;;;13.04;37.64
77205;BME280;66188;46.626;18.866;2023-02-03T00:54:45;100989.31;;;13.03;37.81
77205;BME280;66188;46.626;18.866;2023-02-03T00:57:11;100993.81;;;13.03;37.09
77205;BME280;66188;46.626;18.866;2023-02-03T00:59:36;100993.97;;;13.01;37.91
77205;BME280;66188;46.626;18.866;2023-02-03T01:02:02;101002.78;;;13.02;37.50
77205;BME280;66188;46.626;18.866;2023-02-03T01:04:31;101007.44;;;13.00;37.56
77205;BME280;66188;46.626;18.866;2023-02-03T01:06:56;101010.00;;;13.01;37.44
77205;BME280;66188;46.626;18.866;2023-02-03T01:09:24;101017.00;;;13.02;37.07
77205;BME280;66188;46.626;18.866;2023-02-03T01:11:50;101013.63;;;13.00;37.15
77205;BME280;66188;46.626;18.866;2023-02-03T01:14:15;101017.84;;;13.03;38.00
77205;BME280;66188;46.626;18.866;2023-02-03T01:16:41;101018.00;;;13.01;36.82
77205;BME280;66188;46.626;18.866;2023-02-03T01:19:06;101015.88;;;12.95;37.47
77205;BME280;66188;46.626;18.866;2023-02-03T01:21:32;101022.63;;;12.99;37.88
77205;BME280;66188;46.626;18.866;2023-02-03T01:24:00;101026.13;;;13.00;37.04
77205;BME280;66188;46.626;18.866;2023-02-03T01:26:27;101018.69;;;12.94;37.55
77205;BME280;66188;46.626;18.866;2023-02-03T01:28:57;101031.63;;;12.98;37.54
77205;BME280;66188;46.626;18.866;2023-02-03T01:31:27;101038.66;;;12.99;37.16
77205;BME280;66188;46.626;18.866;2023-02-03T01:33:54;101045.97;;;12.97;37.56
77205;BME280;66188;46.626;18.866;2023-02-03T01:36:22;101032.44;;;12.89;37.02
77205;BME280;66188;46.626;18.866;2023-02-03T01:38:49;101057.50;;;12.98;37.17
77205;BME280;66188;46.626;18.866;2023-02-03T01:41:20;101044.41;;;12.95;37.62
77205;BME280;66188;46.626;18.866;2023-02-03T01:43:52;101040.06;;;12.94;37.24
77205;BME280;66188;46.626;18.866;2023-02-03T01:46:44;101037.25;;;12.95;37.07
77205;BME280;66188;46.626;18.866;2023-02-03T01:49:22;101035.69;;;12.93;37.51
77205;BME280;66188;46.626;18.866;2023-02-03T01:51:50;101048.63;;;12.97;37.59
77205;BME280;66188;46.626;18.866;2023-02-03T01:54:27;101034.16;;;12.90;37.21
77205;BME280;66188;46.626;18.866;2023-02-03T01:56:59;101050.44;;;12.97;37.28
77205;BME280;66188;46.626;18.866;2023-02-03T01:59:27;101045.41;;;12.94;37.37
77205;BME280;66188;46.626;18.866;2023-02-03T02:01:54;101032.59;;;12.88;37.42
77205;BME280;66188;46.626;18.866;2023-02-03T02:04:24;101048.19;;;12.92;37.08
77205;BME280;66188;46.626;18.866;2023-02-03T02:06:51;101050.88;;;12.92;37.46
77205;BME280;66188;46.626;18.866;2023-02-03T02:09:17;101052.56;;;12.93;37.44
77205;BME280;66188;46.626;18.866;2023-02-03T02:11:42;101055.38;;;12.92;37.56
77205;BME280;66188;46.626;18.866;2023-02-03T02:14:08;101058.03;;;12.92;37.34
77205;BME280;66188;46.626;18.866;2023-02-03T02:16:52;101050.88;;;12.92;37.13
77205;BME280;66188;46.626;18.866;2023-02-03T02:25:28;101042.16;;;12.90;37.16
77205;BME280;66188;46.626;18.866;2023-02-03T02:36:30;101046.91;;;12.87;37.49
77205;BME280;66188;46.626;18.866;2023-02-03T02:39:52;101031.31;;;12.82;37.86
77205;BME280;66188;46.626;18.866;2023-02-03T02:42:00;101031.31;;;12.82;37.77
77205;BME280;66188;46.626;18.866;2023-02-03T02:44:33;101044.41;;;12.85;37.87
77205;BME280;66188;46.626;18.866;2023-02-03T02:47:11;101041.03;;;12.83;37.54
77205;BME280;66188;46.626;18.866;2023-02-03T02:52:16;101044.41;;;12.85;37.79
77205;BME280;66188;46.626;18.866;2023-02-03T02:54:48;101047.91;;;12.86;37.05
77205;BME280;66188;46.626;18.866;2023-02-03T02:57:17;101041.88;;;12.84;37.14
77205;BME280;66188;46.626;18.866;2023-02-03T02:59:46;101047.91;;;12.86;37.27
77205;BME280;66188;46.626;18.866;2023-02-03T03:02:11;101042.69;;;12.84;37.86
77205;BME280;66188;46.626;18.866;2023-02-03T03:04:37;101033.97;;;12.73;37.82
77205;BME280;66188;46.626;18.866;2023-02-03T03:07:13;101045.50;;;12.83;37.97
77205;BME280;66188;46.626;18.866;2023-02-03T03:09:44;101053.53;;;12.83;37.67
77205;BME280;66188;46.626;18.866;2023-02-03T03:12:15;101056.19;;;12.83;37.56
77205;BME280;66188;46.626;18.866;2023-02-03T03:14:42;101045.66;;;12.81;37.58
77205;BME280;66188;46.626;18.866;2023-02-03T03:17:12;101048.72;;;12.77;37.63
77205;BME280;66188;46.626;18.866;2023-02-03T03:19:46;101053.94;;;12.78;38.12
77205;BME280;66188;46.626;18.866;2023-02-03T03:22:15;101054.78;;;12.79;37.50
77205;BME280;66188;46.626;18.866;2023-02-03T03:24:59;101047.91;;;12.76;38.10
77205;BME280;66188;46.626;18.866;2023-02-03T03:27:38;101065.47;;;12.79;38.03
77205;BME280;66188;46.626;18.866;2023-02-03T03:30:32;101052.50;;;12.74;37.56
77205;BME280;66188;46.626;18.866;2023-02-03T03:32:58;101059.28;;;12.78;37.82
77205;BME280;66188;46.626;18.866;2023-02-03T03:35:30;101064.63;;;12.78;37.89
77205;BME280;66188;46.626;18.866;2023-02-03T03:37:59;101056.88;;;12.75;37.63
77205;BME280;66188;46.626;18.866;2023-02-03T03:40:51;101064.75;;;12.77;37.29
77205;BME280;66188;46.626;18.866;2023-02-03T03:43:24;101056.72;;;12.77;37.60
77205;BME280;66188;46.626;18.866;2023-02-03T03:45:58;101056.72;;;12.77;37.33
77205;BME280;66188;46.626;18.866;2023-02-03T03:51:01;101057.59;;;12.77;38.27
77205;BME280;66188;46.626;18.866;2023-02-03T03:53:31;101046.91;;;12.77;37.91
77205;BME280;66188;46.626;18.866;2023-02-03T03:55:59;101042.56;;;12.76;37.75
77205;BME280;66188;46.626;18.866;2023-02-03T03:58:29;101038.59;;;12.71;37.38
77205;BME280;66188;46.626;18.866;2023-02-03T04:00:58;101047.03;;;12.76;37.54
77205;BME280;66188;46.626;18.866;2023-02-03T04:03:39;101044.50;;;12.74;37.62
77205;BME280;66188;46.626;18.866;2023-02-03T04:06:06;101047.03;;;12.76;37.91
77205;BME280;66188;46.626;18.866;2023-02-03T04:08:32;101039.88;;;12.76;37.71
77205;BME280;66188;46.626;18.866;2023-02-03T04:10:57;101039.03;;;12.76;37.75
77205;BME280;66188;46.626;18.866;2023-02-03T04:13:23;101015.09;;;12.64;37.60
77205;BME280;66188;46.626;18.866;2023-02-03T04:15:48;101036.63;;;12.73;37.47
77205;BME280;66188;46.626;18.866;2023-02-03T04:18:14;101035.38;;;12.77;37.94
77205;BME280;66188;46.626;18.866;2023-02-03T04:20:40;101034.81;;;12.73;37.50
77205;BME280;66188;46.626;18.866;2023-02-03T04:23:07;101030.16;;;12.75;37.74
77205;BME280;66188;46.626;18.866;2023-02-03T04:25:33;101026.81;;;12.73;37.97
77205;BME280;66188;46.626;18.866;2023-02-03T04:27:58;101028.75;;;12.71;38.01
77205;BME280;66188;46.626;18.866;2023-02-03T04:30:25;101028.88;;;12.69;37.97
77205;BME280;66188;46.626;18.866;2023-02-03T04:32:50;101025.09;;;12.72;37.53
77205;BME280;66188;46.626;18.866;2023-02-03T04:35:16;101026.91;;;12.72;37.55
77205;BME280;66188;46.626;18.866;2023-02-03T04:37:42;101029.59;;;12.72;37.74
77205;BME280;66188;46.626;18.866;2023-02-03T04:40:09;101021.03;;;12.68;37.08
77205;BME280;66188;46.626;18.866;2023-02-03T04:42:38;101031.44;;;12.71;37.71
77205;BME280;66188;46.626;18.866;2023-02-03T04:45:10;101013.53;;;12.62;37.71
77205;BME280;66188;46.626;18.866;2023-02-03T04:47:36;101019.31;;;12.67;37.63
77205;BME280;66188;46.626;18.866;2023-02-03T04:50:03;101020.88;;;12.69;37.49
77205;BME280;66188;46.626;18.866;2023-02-03T04:52:29;101030.69;;;12.69;37.20
77205;BME280;66188;46.626;18.866;2023-02-03T04:54:55;101019.03;;;12.60;37.35
77205;BME280;66188;46.626;18.866;2023-02-03T04:57:20;101030.69;;;12.69;37.75
77205;BME280;66188;46.626;18.866;2023-02-03T04:59:46;101037.16;;;12.66;37.78
77205;BME280;66188;46.626;18.866;2023-02-03T05:02:11;101046.88;;;12.67;37.49
77205;BME280;66188;46.626;18.866;2023-02-03T05:04:37;101054.88;;;12.67;37.46
77205;BME280;66188;46.626;18.866;2023-02-03T05:07:02;101056.72;;;12.67;37.40
77205;BME280;66188;46.626;18.866;2023-02-03T05:09:28;101057.97;;;12.63;37.09
77205;BME280;66188;46.626;18.866;2023-02-03T05:11:53;101063.75;;;12.68;37.76
77205;BME280;66188;46.626;18.866;2023-02-03T05:14:19;101071.19;;;12.64;37.42
77205;BME280;66188;46.626;18.866;2023-02-03T05:16:45;101066.50;;;12.57;37.63
77205;BME280;66188;46.626;18.866;2023-02-03T05:19:10;101059.47;;;12.56;37.82
77205;BME280;66188;46.626;18.866;2023-02-03T05:21:36;101076.50;;;12.64;37.70
77205;BME280;66188;46.626;18.866;2023-02-03T05:24:01;101057.81;;;12.64;38.08
77205;BME280;66188;46.626;18.866;2023-02-03T05:26:31;101061.34;;;12.65;37.75
77205;BME280;66188;46.626;18.866;2023-02-03T05:28:57;101029.94;;;12.48;37.90
77205;BME280;66188;46.626;18.866;2023-02-03T05:31:22;101050.81;;;12.63;37.90
77205;BME280;66188;46.626;18.866;2023-02-03T05:33:48;101045.16;;;12.57;37.62
77205;BME280;66188;46.626;18.866;2023-02-03T05:36:13;101045.72;;;12.60;37.52
77205;BME280;66188;46.626;18.866;2023-02-03T05:38:39;101056.72;;;12.67;37.83
77205;BME280;66188;46.626;18.866;2023-02-03T05:41:09;101049.81;;;12.64;37.34
77205;BME280;66188;46.626;18.866;2023-02-03T05:43:53;101049.81;;;12.64;37.42
77205;BME280;66188;46.626;18.866;2023-02-03T05:46:19;101051.38;;;12.67;38.16
77205;BME280;66188;46.626;18.866;2023-02-03T05:48:44;101044.63;;;12.63;37.50
77205;BME280;66188;46.626;18.866;2023-02-03T05:51:16;101054.03;;;12.67;37.83
77205;BME280;66188;46.626;18.866;2023-02-03T05:53:41;101056.72;;;12.67;37.47
77205;BME280;66188;46.626;18.866;2023-02-03T05:56:07;101055.03;;;12.66;37.45
77205;BME280;66188;46.626;18.866;2023-02-03T05:58:32;101061.19;;;12.66;37.71
77205;BME280;66188;46.626;18.866;2023-02-03T06:00:58;101056.00;;;12.65;37.45
77205;BME280;66188;46.626;18.866;2023-02-03T06:03:24;101052.38;;;12.66;37.89
77205;BME280;66188;46.626;18.866;2023-02-03T06:05:49;101049.69;;;12.66;37.84
77205;BME280;66188;46.626;18.866;2023-02-03T06:08:15;101036.03;;;12.59;36.77
77205;BME280;66188;46.626;18.866;2023-02-03T06:10:40;101043.63;;;12.64;37.55
77205;BME280;66188;46.626;18.866;2023-02-03T06:13:14;101034.19;;;12.60;37.38
77205;BME280;66188;46.626;18.866;2023-02-03T06:15:40;101041.69;;;12.66;37.26
77205;BME280;66188;46.626;18.866;2023-02-03T06:18:06;101047.72;;;12.68;37.11
77205;BME280;66188;46.626;18.866;2023-02-03T06:20:32;101055.03;;;12.66;37.82
77205;BME280;66188;46.626;18.866;2023-02-03T06:22:58;101045.72;;;12.60;37.65
77205;BME280;66188;46.626;18.866;2023-02-03T06:25:24;101052.19;;;12.58;37.79
77205;BME280;66188;46.626;18.866;2023-02-03T06:27:50;101060.50;;;12.64;37.78
77205;BME280;66188;46.626;18.866;2023-02-03T06:30:16;101064.72;;;12.67;37.79
77205;BME280;66188;46.626;18.866;2023-02-03T06:32:42;101070.31;;;12.64;37.68
77205;BME280;66188;46.626;18.866;2023-02-03T06:35:08;101078.34;;;12.64;37.59
77205;BME280;66188;46.626;18.866;2023-02-03T06:37:33;101069.50;;;12.63;37.55
77205;BME280;66188;46.626;18.866;2023-02-03T06:40:00;101062.56;;;12.61;37.39
77205;BME280;66188;46.626;18.866;2023-02-03T06:42:26;101057.53;;;12.58;37.41
77205;BME280;66188;46.626;18.866;2023-02-03T06:44:51;101075.81;;;12.62;37.43
77205;BME280;66188;46.626;18.866;2023-02-03T06:47:17;101064.81;;;12.56;37.05
77205;BME280;66188;46.626;18.866;2023-02-03T06:49:43;101088.03;;;12.65;37.31
77205;BME280;66188;46.626;18.866;2023-02-03T06:52:09;101088.19;;;12.63;37.59
77205;BME280;66188;46.626;18.866;2023-02-03T06:54:34;101087.00;;;12.56;37.43
77205;BME280;66188;46.626;18.866;2023-02-03T06:56:59;101096.72;;;12.57;37.79
77205;BME280;66188;46.626;18.866;2023-02-03T06:59:25;101093.91;;;12.59;37.47
77205;BME280;66188;46.626;18.866;2023-02-03T07:01:50;101100.25;;;12.58;37.87
77205;BME280;66188;46.626;18.866;2023-02-03T07:04:17;101115.41;;;12.57;37.78
77205;BME280;66188;46.626;18.866;2023-02-03T07:06:42;101121.31;;;12.61;37.27
77205;BME280;66188;46.626;18.866;2023-02-03T07:09:08;101111.31;;;12.53;37.32
77205;BME280;66188;46.626;18.866;2023-02-03T07:11:33;101104.97;;;12.45;37.36
77205;BME280;66188;46.626;18.866;2023-02-03T07:13:59;101113.16;;;12.53;38.01
77205;BME280;66188;46.626;18.866;2023-02-03T07:16:25;101121.63;;;12.58;37.20
77205;BME280;66188;46.626;18.866;2023-02-03T07:18:52;101128.78;;;12.57;37.74
77205;BME280;66188;46.626;18.866;2023-02-03T07:21:17;101120.75;;;12.57;37.69
77205;BME280;66188;46.626;18.866;2023-02-03T07:23:46;101123.53;;;12.56;37.69
77205;BME280;66188;46.626;18.866;2023-02-03T07:26:11;101129.03;;;12.54;38.10
77205;BME280;66188;46.626;18.866;2023-02-03T07:28:37;101128.88;;;12.56;37.93
77205;BME280;66188;46.626;18.866;2023-02-03T07:31:06;101126.22;;;12.56;37.72
77205;BME280;66188;46.626;18.866;2023-02-03T07:33:35;101119.91;;;12.57;37.67
77205;BME280;66188;46.626;18.866;2023-02-03T07:36:01;101119.06;;;12.56;38.06
77205;BME280;66188;46.626;18.866;2023-02-03T07:38:28;101120.31;;;12.52;37.84
77205;BME280;66188;46.626;18.866;2023-02-03T07:40:54;101115.81;;;12.53;37.77
77205;BME280;66188;46.626;18.866;2023-02-03T07:43:22;101108.78;;;12.52;37.68
77205;BME280;66188;46.626;18.866;2023-02-03T07:45:48;101097.25;;;12.51;38.05
77205;BME280;66188;46.626;18.866;2023-02-03T07:48:14;101107.81;;;12.53;37.83
77205;BME280;66188;46.626;18.866;2023-02-03T07:50:39;101111.44;;;12.52;38.36
77205;BME280;66188;46.626;18.866;2023-02-03T07:53:06;101110.47;;;12.53;38.39
77205;BME280;66188;46.626;18.866;2023-02-03T07:55:33;101108.78;;;12.52;38.37
77205;BME280;66188;46.626;18.866;2023-02-03T07:57:59;101087.50;;;12.41;37.97
77205;BME280;66188;46.626;18.866;2023-02-03T08:00:25;101092.31;;;12.47;37.81
77205;BME280;66188;46.626;18.866;2023-02-03T08:02:51;101102.59;;;12.51;38.14
77205;BME280;66188;46.626;18.866;2023-02-03T08:05:17;101110.34;;;12.54;38.07
77205;BME280;66188;46.626;18.866;2023-02-03T08:07:43;101118.50;;;12.53;38.33
77205;BME280;66188;46.626;18.866;2023-02-03T08:10:11;101088.75;;;12.37;38.19
77205;BME280;66188;46.626;18.866;2023-02-03T08:12:37;101117.91;;;12.49;38.37
77205;BME280;66188;46.626;18.866;2023-02-03T08:15:03;101118.75;;;12.50;38.30
77205;BME280;66188;46.626;18.866;2023-02-03T08:17:29;101128.31;;;12.52;37.94
77205;BME280;66188;46.626;18.866;2023-02-03T08:19:54;101136.44;;;12.51;38.27
77205;BME280;66188;46.626;18.866;2023-02-03T08:22:20;101133.06;;;12.49;37.94
77205;BME280;66188;46.626;18.866;2023-02-03T08:24:46;101129.69;;;12.47;38.14
77205;BME280;66188;46.626;18.866;2023-02-03T08:27:12;101128.72;;;12.48;38.21
77205;BME280;66188;46.626;18.866;2023-02-03T08:29:38;101130.66;;;12.46;38.14
77205;BME280;66188;46.626;18.866;2023-02-03T08:32:07;101141.22;;;12.47;38.59
77205;BME280;66188;46.626;18.866;2023-02-03T08:34:33;101147.41;;;12.48;38.17
77205;BME280;66188;46.626;18.866;2023-02-03T08:36:59;101152.75;;;12.48;38.64
77205;BME280;66188;46.626;18.866;2023-02-03T08:39:25;101137.41;;;12.40;38.69
77205;BME280;66188;46.626;18.866;2023-02-03T08:41:51;101153.72;;;12.47;37.99
77205;BME280;66188;46.626;18.866;2023-02-03T08:44:17;101151.91;;;12.47;38.64
77205;BME280;66188;46.626;18.866;2023-02-03T08:46:44;101155.44;;;12.48;38.64
77205;BME280;66188;46.626;18.866;2023-02-03T08:49:10;101155.44;;;12.48;38.44
77205;BME280;66188;46.626;18.866;2023-02-03T08:51:36;101149.34;;;12.46;38.35
77205;BME280;66188;46.626;18.866;2023-02-03T08:54:02;101155.44;;;12.48;38.95
77205;BME280;66188;46.626;18.866;2023-02-03T08:56:27;101153.88;;;12.45;38.41
77205;BME280;66188;46.626;18.866;2023-02-03T08:58:53;101154.44;;;12.49;38.49
77205;BME280;66188;46.626;18.866;2023-02-03T09:01:22;101149.09;;;12.49;39.01
77205;BME280;66188;46.626;18.866;2023-02-03T09:03:47;101151.91;;;12.47;38.81
77205;BME280;66188;46.626;18.866;2023-02-03T09:06:13;101139.31;;;12.38;38.69
77205;BME280;66188;46.626;18.866;2023-02-03T09:08:44;101144.84;;;12.46;39.10
77205;BME280;66188;46.626;18.866;2023-02-03T09:11:16;101147.53;;;12.46;38.36
77205;BME280;66188;46.626;18.866;2023-02-03T09:13:44;101137.84;;;12.45;38.83
77205;BME280;66188;46.626;18.866;2023-02-03T09:16:11;101126.44;;;12.43;38.59
77205;BME280;66188;46.626;18.866;2023-02-03T09:18:37;101124.63;;;12.44;38.80
77205;BME280;66188;46.626;18.866;2023-02-03T09:21:06;101119.28;;;12.44;38.89
77205;BME280;66188;46.626;18.866;2023-02-03T09:23:32;101107.75;;;12.43;39.02
77205;BME280;66188;46.626;18.866;2023-02-03T09:26:11;101128.00;;;12.46;38.62
77205;BME280;66188;46.626;18.866;2023-02-03T09:28:39;101114.06;;;12.42;38.88
77205;BME280;66188;46.626;18.866;2023-02-03T09:31:14;101122.19;;;12.41;38.71
77205;BME280;66188;46.626;18.866;2023-02-03T09:33:42;101114.19;;;12.41;38.66
77205;BME280;66188;46.626;18.866;2023-02-03T09:36:09;101116.75;;;12.42;39.14
77205;BME280;66188;46.626;18.866;2023-02-03T09:38:35;101109.59;;;12.43;39.22
77205;BME280;66188;46.626;18.866;2023-02-03T09:41:13;101108.59;;;12.44;38.57
77205;BME280;66188;46.626;18.866;2023-02-03T09:48:42;101087.25;;;12.44;39.12
77205;BME280;66188;46.626;18.866;2023-02-03T09:52:17;101079.94;;;12.46;39.15
77205;BME280;66188;46.626;18.866;2023-02-03T09:56:58;101066.88;;;12.43;38.98
77205;BME280;66188;46.626;18.866;2023-02-03T09:59:26;101054.91;;;12.37;38.82
77205;BME280;66188;46.626;18.866;2023-02-03T10:08:04;101058.03;;;12.42;39.51
77205;BME280;66188;46.626;18.866;2023-02-03T10:10:39;101043.22;;;12.38;39.42
77205;BME280;66188;46.626;18.866;2023-02-03T10:18:41;101011.63;;;12.34;39.25
77205;BME280;66188;46.626;18.866;2023-02-03T10:21:17;101022.47;;;12.42;39.47
77205;BME280;66188;46.626;18.866;2023-02-03T10:23:46;101005.31;;;12.35;39.36
77205;BME280;66188;46.626;18.866;2023-02-03T10:26:21;101001.78;;;12.34;39.74
77205;BME280;66188;46.626;18.866;2023-02-03T10:28:57;101014.47;;;12.42;39.15
77205;BME280;66188;46.626;18.866;2023-02-03T10:31:29;101004.75;;;12.41;39.16
77205;BME280;66188;46.626;18.866;2023-02-03T10:34:08;100996.88;;;12.39;39.28
77205;BME280;66188;46.626;18.866;2023-02-03T10:42:07;100977.25;;;12.40;39.98
77205;BME280;66188;46.626;18.866;2023-02-03T10:47:34;100963.88;;;12.40;39.90
77205;BME280;66188;46.626;18.866;2023-02-03T10:50:14;100955.03;;;12.40;39.33
77205;BME280;66188;46.626;18.866;2023-02-03T10:52:39;100965.44;;;12.43;39.36
77205;BME280;66188;46.626;18.866;2023-02-03T10:55:30;100961.06;;;12.42;40.02
77205;BME280;66188;46.626;18.866;2023-02-03T10:57:56;100951.25;;;12.42;39.56
77205;BME280;66188;46.626;18.866;2023-02-03T11:00:30;100944.09;;;12.43;39.32
77205;BME280;66188;46.626;18.866;2023-02-03T11:03:07;100941.53;;;12.41;39.96
77205;BME280;66188;46.626;18.866;2023-02-03T11:05:33;100931.72;;;12.42;39.36
77205;BME280;66188;46.626;18.866;2023-02-03T11:08:13;100920.44;;;12.38;39.87
77205;BME280;66188;46.626;18.866;2023-02-03T11:10:39;100918.63;;;12.39;39.70
77205;BME280;66188;46.626;18.866;2023-02-03T11:13:25;100914.16;;;12.39;40.11
77205;BME280;66188;46.626;18.866;2023-02-03T11:16:00;100902.50;;;12.40;39.79
77205;BME280;66188;46.626;18.866;2023-02-03T11:24:30;100886.50;;;12.40;40.34
77205;BME280;66188;46.626;18.866;2023-02-03T11:27:05;100854.72;;;12.28;39.59
77205;BME280;66188;46.626;18.866;2023-02-03T11:29:35;100864.28;;;12.40;39.89
77205;BME280;66188;46.626;18.866;2023-02-03T11:35:50;100855.56;;;12.38;40.21
77205;BME280;66188;46.626;18.866;2023-02-03T11:37:46;100859.91;;;12.39;40.42
77205;BME280;66188;46.626;18.866;2023-02-03T11:45:42;100843.91;;;12.39;40.10
77205;BME280;66188;46.626;18.866;2023-02-03T11:48:49;100837.72;;;12.38;40.69
77205;BME280;66188;46.626;18.866;2023-02-03T12:21:36;100722.81;;;12.40;41.25
77205;BME280;66188;46.626;18.866;2023-02-03T12:24:28;100705.25;;;12.37;41.06
77205;BME280;66188;46.626;18.866;2023-02-03T12:27:32;100700.63;;;12.39;40.79
77205;BME280;66188;46.626;18.866;2023-02-03T12:32:34;100686.44;;;12.39;41.27
77205;BME280;66188;46.626;18.866;2023-02-03T12:37:45;100679.41;;;12.38;40.95
77205;BME280;66188;46.626;18.866;2023-02-03T12:40:14;100679.41;;;12.38;41.37
77205;BME280;66188;46.626;18.866;2023-02-03T12:42:45;100680.41;;;12.37;41.42
77205;BME280;66188;46.626;18.866;2023-02-03T12:45:17;100670.41;;;12.39;41.47
77205;BME280;66188;46.626;18.866;2023-02-03T12:50:18;100662.56;;;12.37;41.72
77205;BME280;66188;46.626;18.866;2023-02-03T12:53:00;100650.88;;;12.38;41.13
77205;BME280;66188;46.626;18.866;2023-02-03T12:55:38;100647.25;;;12.39;41.57
77205;BME280;66188;46.626;18.866;2023-02-03T12:58:20;100627.72;;;12.39;41.39
77205;BME280;66188;46.626;18.866;2023-02-03T13:00:51;100623.91;;;12.41;40.97
77205;BME280;66188;46.626;18.866;2023-02-03T13:03:54;100605.38;;;12.40;41.27
77205;BME280;66188;46.626;18.866;2023-02-03T13:09:30;100589.38;;;12.40;41.16
77205;BME280;66188;46.626;18.866;2023-02-03T13:17:26;100559.44;;;12.36;41.24
77205;BME280;66188;46.626;18.866;2023-02-03T13:20:18;100554.97;;;12.37;41.23
77205;BME280;66188;46.626;18.866;2023-02-03T13:22:44;100551.59;;;12.35;41.96
77205;BME280;66188;46.626;18.866;2023-02-03T13:25:34;100540.94;;;12.35;42.08
77205;BME280;66188;46.626;18.866;2023-02-03T13:31:09;100538.94;;;12.37;41.62
77205;BME280;66188;46.626;18.866;2023-02-03T13:36:38;100519.56;;;12.35;41.84
77205;BME280;66188;46.626;18.866;2023-02-03T13:42:25;100508.75;;;12.36;41.84
77205;BME280;66188;46.626;18.866;2023-02-03T13:45:18;100495.69;;;12.33;41.97
77205;BME280;66188;46.626;18.866;2023-02-03T13:47:45;100491.19;;;12.34;41.70
77205;BME280;66188;46.626;18.866;2023-02-03T13:50:30;100475.88;;;12.36;41.98
77205;BME280;66188;46.626;18.866;2023-02-03T13:53:00;100483.88;;;12.36;42.07
77205;BME280;66188;46.626;18.866;2023-02-03T13:57:57;100454.28;;;12.29;41.61
77205;BME280;66188;46.626;18.866;2023-02-03T14:05:52;100463.38;;;12.36;41.95
77205;BME280;66188;46.626;18.866;2023-02-03T14:16:37;100435.84;;;12.36;42.07
77205;BME280;66188;46.626;18.866;2023-02-03T14:19:08;100433.34;;;12.34;41.69
77205;BME280;66188;46.626;18.866;2023-02-03T14:24:07;100423.50;;;12.35;42.12
77205;BME280;66188;46.626;18.866;2023-02-03T14:26:45;100419.81;;;12.36;41.79
77205;BME280;66188;46.626;18.866;2023-02-03T14:29:28;100422.66;;;12.34;41.94
77205;BME280;66188;46.626;18.866;2023-02-03T14:32:05;100427.03;;;12.35;42.16
77205;BME280;66188;46.626;18.866;2023-02-03T14:37:21;100425.16;;;12.36;41.90
77205;BME280;66188;46.626;18.866;2023-02-03T14:48:05;100419.00;;;12.35;41.82
77205;BME280;66188;46.626;18.866;2023-02-03T14:50:53;100414.50;;;12.36;42.19
77205;BME280;66188;46.626;18.866;2023-02-03T14:53:39;100410.16;;;12.35;41.77
77205;BME280;66188;46.626;18.866;2023-02-03T15:02:31;100380.66;;;12.36;42.28
77205;BME280;66188;46.626;18.866;2023-02-03T15:07:39;100362.88;;;12.27;41.99
77205;BME280;66188;46.626;18.866;2023-02-03T15:12:51;100367.47;;;12.35;42.40
77205;BME280;66188;46.626;18.866;2023-02-03T15:17:51;100362.13;;;12.35;42.30
77205;BME280;66188;46.626;18.866;2023-02-03T15:20:34;100370.81;;;12.37;42.01
77205;BME280;66188;46.626;18.866;2023-02-03T15:23:19;100348.69;;;12.27;41.70
77205;BME280;66188;46.626;18.866;2023-02-03T15:25:58;100347.31;;;12.23;42.11
77205;BME280;66188;46.626;18.866;2023-02-03T15:28:26;100362.13;;;12.35;42.48
77205;BME280;66188;46.626;18.866;2023-02-03T15:31:00;100354.13;;;12.35;42.42
77205;BME280;66188;46.626;18.866;2023-02-03T15:33:31;100358.44;;;12.36;42.72
77205;BME280;66188;46.626;18.866;2023-02-03T15:36:46;100354.13;;;12.35;42.43